Los Lunas ASC

2021-06-24 19:30:00

  • imperial
Date Time Air Temperature Relative Humidity Dewpoint Heat Index Wind Speed Wind Dir. Rain Solar Radiation Soil Temperature
2m 2m 3m 3m 10cm
US/Mountain F % F F MPH deg in MJ/m^2 F
max avg avg
2021-06-23 19:40:00 88.0 18.0 39.2 88.0 2.2 3.0 1.5 298.6 236.9 0.00 0.0100000 95.2
2021-06-23 19:45:00 87.6 18.3 39.3 87.6 2.1 2.4 0.8 249.4 272.0 0.00 0.0090000 95.0
2021-06-23 19:50:00 87.5 18.4 39.4 87.5 0.0 2.2 0.6 195.8 227.6 0.00 0.0080000 94.9
2021-06-23 19:55:00 87.0 18.5 39.1 87.0 2.1 3.0 0.7 240.5 213.8 0.00 0.0100000 94.9
2021-06-23 20:00:00 87.4 17.6 38.1 87.4 2.4 4.9 3.1 238.0 243.0 0.00 0.0100000 94.7
2021-06-23 20:05:00 88.0 17.0 37.8 88.0 4.0 7.8 3.5 229.4 251.9 0.00 0.0060000 94.6
2021-06-23 20:10:00 88.0 17.2 38.0 88.0 1.7 4.4 2.9 235.4 231.7 0.00 0.0030000 94.5
2021-06-23 20:15:00 87.8 17.7 38.6 87.8 1.3 3.1 1.8 186.8 208.7 0.00 0.0020000 94.4
2021-06-23 20:20:00 87.1 18.0 38.5 87.1 1.9 2.2 0.8 234.4 215.6 0.00 0.0010000 94.3
2021-06-23 20:25:00 87.1 18.2 38.7 87.1 1.3 3.3 1.6 252.7 230.5 0.00 0.0010000 94.2
2021-06-23 20:30:00 86.9 18.8 39.4 86.9 0.0 3.0 1.0 159.5 243.1 0.00 0.0000000 94.1
2021-06-23 20:35:00 86.3 19.3 39.6 86.3 0.8 1.2 0.2 160.2 140.6 0.00 0.0000000 94.0
2021-06-23 20:40:00 85.9 19.2 39.1 85.9 1.7 3.3 1.8 244.6 216.0 0.00 0.0000000 93.9
2021-06-23 20:45:00 86.3 19.8 40.3 86.3 0.0 2.8 1.2 211.4 225.0 0.00 0.0000000 93.8
2021-06-23 20:50:00 85.4 20.3 40.2 85.4 0.0 0.8 0.1 143.4 122.9 0.00 0.0000000 93.7
2021-06-23 20:55:00 85.0 20.5 40.0 85.0 1.9 1.9 0.3 240.6 199.0 0.00 0.0000000 93.5
2021-06-23 21:00:00 86.2 20.4 40.9 86.2 5.6 12.2 5.7 211.0 246.0 0.00 0.0000000 93.4
2021-06-23 21:05:00 86.3 21.2 42.1 86.3 8.7 9.7 4.7 272.9 270.0 0.00 0.0000000 93.3
2021-06-23 21:10:00 87.0 19.6 40.6 87.0 12.2 13.5 7.5 288.6 268.7 0.00 0.0000000 93.3
2021-06-23 21:15:00 87.7 20.5 42.3 87.7 17.1 18.3 9.7 263.4 253.9 0.00 0.0000000 93.1
2021-06-23 21:20:00 84.9 26.6 46.8 84.9 8.3 22.4 13.0 325.2 254.3 0.00 0.0000000 93.1
2021-06-23 21:25:00 82.4 30.0 47.9 82.4 3.8 16.9 6.7 14.8 354.7 0.00 0.0000000 92.9
2021-06-23 21:30:00 82.3 29.3 47.2 82.3 3.0 6.9 4.5 257.6 10.0 0.00 0.0000000 92.8
2021-06-23 21:35:00 81.7 33.1 49.9 81.7 0.0 3.8 1.8 250.9 17.7 0.00 0.0000000 92.7
2021-06-23 21:40:00 82.2 27.9 45.8 82.2 1.7 4.6 2.3 25.4 9.9 0.00 0.0000000 92.6
2021-06-23 21:45:00 82.2 31.2 48.7 82.2 0.0 4.0 1.8 97.6 31.3 0.00 0.0000000 92.5
2021-06-23 21:50:00 82.3 27.4 45.4 82.3 9.7 10.6 2.4 217.3 273.7 0.00 0.0000000 92.4
2021-06-23 21:55:00 84.9 23.6 43.7 84.9 7.6 11.7 6.7 340.4 298.8 0.00 0.0000000 92.3
2021-06-23 22:00:00 85.0 25.8 46.1 85.0 0.0 5.6 3.3 122.1 328.8 0.00 0.0000000 92.2
2021-06-23 22:05:00 83.5 28.1 47.0 83.5 1.5 5.6 2.6 46.2 143.5 0.00 0.0000000 92.1
2021-06-23 22:10:00 81.0 35.5 51.1 81.0 8.5 9.2 5.0 55.7 71.3 0.00 0.0000000 92.0
2021-06-23 22:15:00 79.4 39.2 52.4 79.4 3.7 9.2 5.0 26.5 39.9 0.00 0.0000000 91.9
2021-06-23 22:20:00 76.9 47.7 55.5 76.9 4.7 7.2 4.5 35.2 33.3 0.00 0.0000000 91.8
2021-06-23 22:25:00 74.0 52.9 55.7 74.0 5.6 8.3 6.0 9.1 30.1 0.00 0.0000000 91.6
2021-06-23 22:30:00 73.3 52.7 55.0 73.3 5.1 7.2 5.7 16.4 34.1 0.00 0.0000000 91.5
2021-06-23 22:35:00 74.1 48.3 53.3 74.1 6.3 8.8 5.9 5.3 25.0 0.00 0.0000000 91.3
2021-06-23 22:40:00 75.2 44.5 52.1 75.2 4.4 8.5 6.6 43.2 18.9 0.00 0.0000000 91.2
2021-06-23 22:45:00 75.8 42.6 51.5 75.8 7.1 10.6 6.6 16.7 17.3 0.00 0.0000000 91.1
2021-06-23 22:50:00 76.1 41.0 50.6 76.1 6.0 12.8 7.6 335.0 9.4 0.00 0.0000000 91.0
2021-06-23 22:55:00 75.6 41.3 50.4 75.6 8.3 9.6 7.3 172.0 19.7 0.00 0.0000000 90.9
2021-06-23 23:00:00 75.3 40.6 49.7 75.3 6.7 9.0 6.9 13.8 20.4 0.00 0.0000000 90.8
2021-06-23 23:05:00 76.2 38.4 49.1 76.2 4.2 10.5 6.6 21.6 352.9 0.00 0.0000000 90.6
2021-06-23 23:10:00 76.1 38.6 49.1 76.1 4.7 8.7 5.3 59.3 351.3 0.00 0.0000000 90.5
2021-06-23 23:15:00 75.8 38.7 48.9 75.8 6.9 9.4 6.0 339.8 2.6 0.00 0.0000000 90.3
2021-06-23 23:20:00 75.3 41.4 50.3 75.3 5.8 8.7 5.7 48.3 349.0 0.00 0.0000000 90.2
2021-06-23 23:25:00 74.9 40.2 49.1 74.9 4.0 11.5 6.8 304.1 358.5 0.00 0.0000000 90.1
2021-06-23 23:30:00 75.3 38.5 48.3 75.3 6.2 9.4 6.3 2.2 359.1 0.00 0.0000000 89.9
2021-06-23 23:35:00 75.4 38.5 48.4 75.4 5.5 9.6 4.8 4.4 354.6 0.00 0.0000000 89.8
2021-06-23 23:40:00 75.5 38.8 48.7 75.5 3.8 8.7 5.3 41.0 12.3 0.00 0.0000000 89.7
2021-06-23 23:45:00 74.8 40.9 49.5 74.8 5.1 7.6 5.2 25.1 18.5 0.00 0.0000000 89.5
2021-06-23 23:50:00 74.7 40.1 48.9 74.7 5.8 9.0 5.3 37.3 22.0 0.00 0.0000000 89.4
2021-06-23 23:55:00 74.5 39.8 48.4 74.5 7.8 7.8 4.9 335.6 32.4 0.00 0.0000000 89.3
2021-06-24 00:00:00 74.8 38.6 47.9 74.8 6.9 8.5 5.0 6.9 13.6 0.00 0.0000000 89.2
2021-06-24 00:05:00 75.0 38.9 48.3 75.0 4.4 9.0 5.6 316.1 11.4 0.00 0.0000000 89.1
2021-06-24 00:10:00 75.0 38.5 48.0 75.0 6.2 8.3 5.2 1.0 7.4 0.00 0.0000000 89.0
2021-06-24 00:15:00 75.1 38.6 48.2 75.1 4.9 10.1 5.2 26.7 4.6 0.00 0.0000000 88.8
2021-06-24 00:20:00 75.1 38.7 48.3 75.1 4.7 9.0 4.9 327.9 351.0 0.00 0.0000000 88.7
2021-06-24 00:25:00 74.7 39.7 48.6 74.7 1.9 6.2 3.4 282.4 313.7 0.00 0.0000000 88.6
2021-06-24 00:30:00 74.6 40.3 48.9 74.6 4.6 6.7 4.1 68.9 0.9 0.00 0.0000000 88.5
2021-06-24 00:35:00 74.4 42.0 49.9 74.4 3.5 6.5 3.7 47.9 23.8 0.00 0.0000000 88.4
2021-06-24 00:40:00 73.7 44.6 50.8 73.7 0.0 4.4 1.4 156.5 56.6 0.00 0.0000000 88.3
2021-06-24 00:45:00 72.8 46.2 50.9 72.8 0.0 0.0 0.0 149.1 0.0 0.00 0.0000000 88.1
2021-06-24 00:50:00 72.3 48.9 52.0 72.3 0.0 0.0 0.0 107.2 0.0 0.00 0.0000000 88.0
2021-06-24 00:55:00 71.2 49.5 51.4 71.2 0.0 1.3 0.1 122.3 109.6 0.00 0.0000000 87.9
2021-06-24 01:00:00 70.9 48.4 50.5 70.9 1.0 2.8 0.8 140.5 98.9 0.00 0.0000000 87.8
2021-06-24 01:05:00 70.9 48.4 50.4 70.9 0.0 1.7 0.4 64.4 50.2 0.00 0.0000000 87.7
2021-06-24 01:10:00 71.0 48.1 50.4 71.0 0.0 2.4 1.1 299.9 60.5 0.00 0.0000000 87.6
2021-06-24 01:15:00 71.2 48.5 50.8 71.2 0.0 2.4 0.3 146.7 288.0 0.00 0.0000000 87.5
2021-06-24 01:20:00 70.6 48.7 50.4 70.6 0.0 0.0 0.0 146.7 0.0 0.00 0.0000000 87.4
2021-06-24 01:25:00 70.6 49.8 50.9 70.6 0.0 0.0 0.0 255.0 0.0 0.00 0.0000000 87.3
2021-06-24 01:30:00 70.5 49.3 50.5 70.5 0.0 0.0 0.0 343.3 0.0 0.00 0.0000000 87.2
2021-06-24 01:35:00 70.8 48.6 50.5 70.8 2.4 2.8 0.9 37.3 30.6 0.00 0.0000000 87.2
2021-06-24 01:40:00 70.3 53.8 52.8 70.3 0.0 2.6 1.3 52.1 42.4 0.00 0.0000000 87.1
2021-06-24 01:45:00 69.9 55.2 53.1 69.9 2.2 2.2 0.4 43.7 45.5 0.00 0.0000000 87.0
2021-06-24 01:50:00 69.3 55.6 52.7 69.3 0.0 2.6 1.5 52.4 43.0 0.00 0.0000000 86.9
2021-06-24 01:55:00 69.2 56.7 53.2 69.2 1.9 1.9 0.2 195.2 195.9 0.00 0.0000000 86.8
2021-06-24 02:00:00 69.0 57.3 53.3 69.0 0.0 2.1 0.9 189.9 199.1 0.00 0.0000000 86.8
2021-06-24 02:05:00 68.8 56.1 52.5 68.8 1.5 2.2 1.3 187.2 177.8 0.00 0.0000000 86.6
2021-06-24 02:10:00 69.1 57.6 53.5 69.1 0.0 1.2 0.0 178.7 210.1 0.00 0.0000000 86.6
2021-06-24 02:15:00 68.9 56.6 52.8 68.9 0.0 0.0 0.0 51.7 0.0 0.00 0.0000000 86.5
2021-06-24 02:20:00 68.5 61.2 54.6 68.5 1.2 1.2 0.1 59.1 65.0 0.00 0.0000000 86.4
2021-06-24 02:25:00 68.6 61.5 54.8 68.6 1.0 1.3 0.1 90.8 72.0 0.00 0.0000000 86.4
2021-06-24 02:30:00 68.9 55.9 52.5 68.9 3.0 3.1 1.9 50.2 69.2 0.00 0.0000000 86.3
2021-06-24 02:35:00 68.0 58.5 52.9 68.0 3.7 3.7 2.9 24.6 32.3 0.00 0.0000000 86.2
2021-06-24 02:40:00 68.1 57.7 52.6 68.1 2.8 3.8 2.7 0.1 0.2 0.00 0.0000000 86.2
2021-06-24 02:45:00 68.3 55.4 51.7 68.3 2.2 4.0 2.5 30.4 20.2 0.00 0.0000000 86.1
2021-06-24 02:50:00 68.3 56.7 52.4 68.3 2.2 2.4 1.8 54.0 51.9 0.00 0.0000000 86.0
2021-06-24 02:55:00 68.3 56.8 52.4 68.3 1.0 3.0 2.0 50.2 62.8 0.00 0.0000000 85.9
2021-06-24 03:00:00 67.7 58.7 52.7 67.7 0.0 0.0 0.0 184.7 0.0 0.00 0.0000000 85.8
2021-06-24 03:05:00 67.2 59.5 52.6 67.2 0.0 0.0 0.0 135.2 0.0 0.00 0.0000000 85.8
2021-06-24 03:10:00 66.8 60.9 52.9 66.8 0.0 0.0 0.0 154.8 0.0 0.00 0.0000000 85.7
2021-06-24 03:15:00 66.6 61.4 52.9 66.6 0.0 1.0 0.1 341.5 330.2 0.00 0.0000000 85.6
2021-06-24 03:20:00 67.4 57.0 51.6 67.4 2.1 3.5 1.3 0.4 7.8 0.00 0.0000000 85.6
2021-06-24 03:25:00 68.2 56.8 52.3 68.2 0.0 2.8 0.6 160.1 23.1 0.00 0.0000000 85.5
2021-06-24 03:30:00 68.0 58.1 52.7 68.0 0.0 0.0 0.0 206.1 0.0 0.00 0.0000000 85.4
2021-06-24 03:35:00 67.8 57.8 52.4 67.8 0.0 0.0 0.0 292.5 0.0 0.00 0.0000000 85.4
2021-06-24 03:40:00 67.7 57.1 52.0 67.7 0.8 2.4 0.5 309.9 314.5 0.00 0.0000000 85.3
2021-06-24 03:45:00 68.1 56.1 51.9 68.1 0.0 1.9 0.2 296.8 291.6 0.00 0.0000000 85.2
2021-06-24 03:50:00 68.0 54.6 51.0 68.0 0.8 0.8 0.1 322.8 307.9 0.00 0.0000000 85.1
2021-06-24 03:55:00 68.7 53.8 51.2 68.7 0.0 3.3 0.4 35.3 352.4 0.00 0.0000000 85.0
2021-06-24 04:00:00 68.8 52.9 50.9 68.8 0.0 1.5 0.4 0.8 346.7 0.00 0.0000000 85.0
2021-06-24 04:05:00 69.1 52.5 51.0 69.1 0.0 1.0 0.1 284.1 275.9 0.00 0.0000000 84.9
2021-06-24 04:10:00 69.2 52.4 51.1 69.2 0.0 0.0 0.0 301.7 0.0 0.00 0.0000000 84.8
2021-06-24 04:15:00 69.0 54.5 52.0 69.0 0.0 0.8 0.0 167.3 187.5 0.00 0.0000000 84.8
2021-06-24 04:20:00 68.2 56.5 52.1 68.2 0.0 0.0 0.0 167.3 0.0 0.00 0.0000000 84.7
2021-06-24 04:25:00 68.1 56.8 52.2 68.1 0.0 0.0 0.0 194.0 0.0 0.00 0.0000000 84.6
2021-06-24 04:30:00 67.7 57.0 52.0 67.7 0.0 0.0 0.0 188.4 0.0 0.00 0.0000000 84.6
2021-06-24 04:35:00 67.7 58.9 52.8 67.7 2.6 3.0 0.7 182.2 177.1 0.00 0.0000000 84.5
2021-06-24 04:40:00 67.8 58.3 52.6 67.8 2.1 3.1 2.4 205.0 194.3 0.00 0.0000000 84.5
2021-06-24 04:45:00 67.4 58.2 52.2 67.4 0.0 2.2 0.4 214.4 219.3 0.00 0.0000000 84.4
2021-06-24 04:50:00 67.5 57.8 52.1 67.5 0.0 3.0 1.0 286.0 279.4 0.00 0.0000000 84.3
2021-06-24 04:55:00 67.4 58.1 52.2 67.4 1.3 2.4 0.8 237.3 264.0 0.00 0.0000000 84.3
2021-06-24 05:00:00 67.2 57.5 51.7 67.2 0.0 2.4 0.6 297.0 289.5 0.00 0.0000000 84.2
2021-06-24 05:05:00 67.4 56.6 51.4 67.4 0.0 3.1 0.9 317.1 274.3 0.00 0.0000000 84.2
2021-06-24 05:10:00 67.4 56.9 51.6 67.4 0.0 0.8 0.1 302.1 275.6 0.00 0.0000000 84.1
2021-06-24 05:15:00 67.1 56.5 51.1 67.1 0.0 0.0 0.0 267.8 0.0 0.00 0.0000000 84.1
2021-06-24 05:20:00 67.1 56.1 50.9 67.1 1.0 1.0 0.1 3.7 351.6 0.00 0.0000000 84.0
2021-06-24 05:25:00 67.1 58.5 52.1 67.1 0.0 1.0 0.0 123.3 19.5 0.00 0.0000000 83.9
2021-06-24 05:30:00 66.4 59.6 51.9 66.4 0.0 0.0 0.0 105.5 0.0 0.00 0.0000000 83.9
2021-06-24 05:35:00 65.7 61.7 52.2 65.7 0.0 2.4 0.3 56.0 53.8 0.00 0.0000000 83.8
2021-06-24 05:40:00 66.0 57.1 50.4 66.0 4.0 4.6 0.8 334.2 313.1 0.00 0.0000000 83.8
2021-06-24 05:45:00 67.9 52.2 49.7 67.9 2.2 5.5 2.7 315.0 355.6 0.00 0.0010000 83.7
2021-06-24 05:50:00 69.2 50.0 49.8 69.2 2.2 4.7 2.3 8.4 2.1 0.00 0.0010000 83.6
2021-06-24 05:55:00 69.5 50.5 50.3 69.5 3.0 6.0 1.7 82.1 10.2 0.00 0.0020000 83.6
2021-06-24 06:00:00 69.4 50.6 50.3 69.4 0.0 3.1 1.3 32.8 352.2 0.00 0.0030000 83.6
2021-06-24 06:05:00 69.1 50.7 50.1 69.1 0.0 2.6 1.3 0.6 355.9 0.00 0.0050000 83.5
2021-06-24 06:10:00 69.2 51.4 50.5 69.2 0.0 2.4 0.5 85.2 337.0 0.00 0.0080000 83.4
2021-06-24 06:15:00 68.9 51.1 50.1 68.9 0.0 2.6 0.4 99.9 355.7 0.00 0.0100000 83.4
2021-06-24 06:20:00 68.2 55.4 51.6 68.2 2.6 3.7 1.8 11.8 47.7 0.00 0.0100000 83.3
2021-06-24 06:25:00 67.1 57.7 51.7 67.1 1.7 3.1 2.4 42.6 42.1 0.00 0.0110000 83.2
2021-06-24 06:30:00 66.5 59.3 51.9 66.5 2.6 3.3 2.4 32.7 43.9 0.00 0.0120000 83.2
2021-06-24 06:35:00 66.1 60.4 52.0 66.1 1.7 2.8 2.4 34.1 46.6 0.00 0.0150000 83.1
2021-06-24 06:40:00 66.1 61.2 52.3 66.1 1.7 2.2 1.6 120.4 68.7 0.00 0.0210000 83.1
2021-06-24 06:45:00 65.8 62.8 52.7 65.8 0.0 1.9 0.2 74.7 76.6 0.00 0.0270000 83.0
2021-06-24 06:50:00 65.8 62.6 52.7 65.8 2.8 2.8 1.6 41.4 54.0 0.00 0.0500000 82.9
2021-06-24 06:55:00 66.4 59.9 52.1 66.4 4.4 4.4 3.0 51.0 57.7 0.00 0.0600000 82.9
2021-06-24 07:00:00 67.1 60.2 52.8 67.1 3.0 4.6 3.6 19.1 49.8 0.00 0.1430000 82.8
2021-06-24 07:05:00 67.9 57.7 52.4 67.9 4.4 5.8 4.0 72.1 51.0 0.00 0.1550000 82.8
2021-06-24 07:10:00 68.1 58.8 53.2 68.1 3.5 5.5 4.1 62.0 57.5 0.00 0.1670000 82.7
2021-06-24 07:15:00 68.5 57.0 52.7 68.5 3.3 5.3 3.7 13.2 48.3 0.00 0.1800000 82.7
2021-06-24 07:20:00 69.2 55.9 52.7 69.2 3.3 4.4 3.2 61.8 46.7 0.00 0.1870000 82.6
2021-06-24 07:25:00 69.4 57.8 53.9 69.4 1.7 2.8 1.1 51.0 59.1 0.00 0.2050000 82.5
2021-06-24 07:30:00 69.9 56.9 53.9 69.9 1.9 2.8 1.3 21.1 68.9 0.00 0.2230000 82.5
2021-06-24 07:35:00 70.9 54.8 53.8 70.9 0.0 1.3 0.2 65.7 54.6 0.00 0.2360000 82.5
2021-06-24 07:40:00 71.2 54.3 53.8 71.2 2.4 2.8 0.9 85.2 68.8 0.00 0.2500000 82.4
2021-06-24 07:45:00 71.5 52.8 53.3 71.5 2.1 2.2 1.2 46.4 68.5 0.00 0.2640000 82.4
2021-06-24 07:50:00 72.0 53.5 54.2 72.0 2.2 3.3 1.3 8.7 72.3 0.00 0.2800000 82.3
2021-06-24 07:55:00 72.6 50.3 53.0 72.6 1.9 2.1 0.4 73.7 65.4 0.00 0.2950000 82.3
2021-06-24 08:00:00 73.2 49.9 53.4 73.2 1.3 2.4 1.3 57.0 44.3 0.00 0.3110000 82.3
2021-06-24 08:05:00 73.5 50.8 54.1 73.5 0.0 2.8 1.2 85.8 51.4 0.00 0.3240000 82.2
2021-06-24 08:10:00 75.1 49.2 54.8 75.1 0.0 0.8 0.1 98.8 72.2 0.00 0.3420000 82.2
2021-06-24 08:15:00 76.1 45.8 53.7 76.1 2.1 2.1 0.1 70.9 63.3 0.00 0.3570000 82.2
2021-06-24 08:20:00 75.7 45.9 53.4 75.7 1.3 3.3 1.4 42.2 47.3 0.00 0.3750000 82.2
2021-06-24 08:25:00 75.2 49.0 54.8 75.2 1.9 3.1 1.3 66.9 61.4 0.00 0.3820000 82.2
2021-06-24 08:30:00 75.6 47.8 54.4 75.6 0.0 3.7 1.2 93.7 63.1 0.00 0.4100000 82.1
2021-06-24 08:35:00 76.8 46.8 54.9 76.8 0.0 1.9 0.4 26.2 116.0 0.00 0.4280000 82.1
2021-06-24 08:40:00 76.5 44.2 53.1 76.5 0.0 2.6 0.9 77.3 95.3 0.00 0.4340000 82.2
2021-06-24 08:45:00 77.2 42.9 52.9 77.2 1.2 1.9 0.4 57.1 47.1 0.00 0.4460000 82.2
2021-06-24 08:50:00 78.0 47.0 56.1 78.0 0.0 1.0 0.1 28.3 47.8 0.00 0.4660000 82.2
2021-06-24 08:55:00 77.0 44.3 53.6 77.0 0.0 1.7 0.4 47.6 107.1 0.00 0.4820000 82.3
2021-06-24 09:00:00 78.1 42.6 53.5 78.1 0.0 0.0 0.0 70.8 0.0 0.00 0.4930000 82.4
2021-06-24 09:05:00 77.9 39.3 51.1 77.9 1.3 2.8 1.2 13.4 30.8 0.00 0.5080000 82.5
2021-06-24 09:10:00 78.1 40.6 52.3 78.1 0.0 2.6 0.5 291.2 17.2 0.00 0.5240000 82.5
2021-06-24 09:15:00 77.6 41.1 52.2 77.6 2.4 3.5 1.4 3.4 39.0 0.00 0.5400000 82.6
2021-06-24 09:20:00 77.7 41.9 52.8 77.7 1.5 2.8 1.3 329.2 39.8 0.00 0.5520000 82.7
2021-06-24 09:25:00 78.0 39.3 51.2 78.0 0.0 3.1 1.2 68.3 1.8 0.00 0.5150000 82.9
2021-06-24 09:30:00 78.7 39.6 52.1 78.7 3.7 3.7 1.3 334.2 39.2 0.00 0.1020000 83.0
2021-06-24 09:35:00 79.1 43.7 55.1 79.1 2.4 5.1 1.3 49.3 48.2 0.00 0.5890000 83.1
2021-06-24 09:40:00 78.5 38.5 51.1 78.5 2.2 4.7 2.7 53.5 23.5 0.00 0.6030000 83.2
2021-06-24 09:45:00 78.9 39.8 52.5 78.9 3.7 3.7 0.7 43.6 14.1 0.00 0.6210000 83.3
2021-06-24 09:50:00 79.1 38.5 51.7 79.1 0.0 5.5 2.4 114.1 27.4 0.00 0.6300000 83.5
2021-06-24 09:55:00 80.3 36.8 51.5 80.3 2.4 2.4 0.5 62.0 55.3 0.00 0.6460000 83.6
2021-06-24 10:00:00 81.8 35.3 51.7 81.8 1.9 2.8 0.8 156.1 114.5 0.00 0.6640000 83.8
2021-06-24 10:05:00 81.1 35.6 51.3 81.1 2.1 3.3 1.7 20.6 61.6 0.00 0.6750000 84.0
2021-06-24 10:10:00 80.9 34.3 50.1 80.9 1.0 3.1 1.1 175.8 37.2 0.00 0.6800000 84.1
2021-06-24 10:15:00 81.4 39.8 54.6 81.4 0.0 4.0 1.0 30.4 187.2 0.00 0.6910000 84.3
2021-06-24 10:20:00 81.2 36.0 51.8 81.2 0.0 3.7 1.7 71.8 37.1 0.00 0.7020000 84.5
2021-06-24 10:25:00 81.8 33.6 50.4 81.8 0.0 2.6 0.7 173.4 77.3 0.00 0.7160000 84.7
2021-06-24 10:30:00 82.8 37.0 53.9 82.8 0.8 2.1 1.0 129.5 122.5 0.00 0.7240000 84.8
2021-06-24 10:35:00 83.5 34.9 52.9 83.5 3.5 3.7 1.4 166.4 138.8 0.00 0.7310000 85.1
2021-06-24 10:40:00 83.1 33.3 51.3 83.1 1.5 3.8 1.9 23.2 83.0 0.00 0.7450000 85.2
2021-06-24 10:45:00 83.2 33.4 51.4 83.2 2.1 2.8 1.3 76.2 67.2 0.00 0.7510000 85.5
2021-06-24 10:50:00 82.3 36.3 52.9 82.3 1.7 3.0 1.6 81.7 60.7 0.00 0.7580000 85.7
2021-06-24 10:55:00 82.8 33.4 51.1 82.8 5.5 5.5 2.6 62.0 43.3 0.00 0.7670000 85.9
2021-06-24 11:00:00 83.6 36.3 54.1 83.6 2.8 5.8 1.4 20.1 95.3 0.00 0.7750000 86.1
2021-06-24 11:05:00 82.5 37.3 53.8 82.5 1.5 4.4 1.6 211.4 14.8 0.00 0.7860000 86.3
2021-06-24 11:10:00 84.3 33.3 52.3 84.3 1.2 2.8 1.1 50.2 71.2 0.00 0.7960000 86.5
2021-06-24 11:15:00 84.3 32.3 51.4 84.3 3.0 4.2 1.6 196.9 111.3 0.00 0.8100000 86.8
2021-06-24 11:20:00 83.6 31.8 50.4 83.6 4.7 4.7 2.8 71.6 50.8 0.00 0.8260000 87.0
2021-06-24 11:25:00 83.4 32.1 50.6 83.4 0.8 4.2 2.0 56.8 28.7 0.00 0.5290000 87.2
2021-06-24 11:30:00 85.5 29.2 49.8 85.5 2.6 2.6 1.1 95.7 64.7 0.00 0.8310000 87.5
2021-06-24 11:35:00 84.3 32.1 51.3 84.3 3.3 4.9 3.1 70.3 51.5 0.00 0.8310000 87.7
2021-06-24 11:40:00 84.3 31.2 50.6 84.3 3.5 4.4 2.0 86.9 78.6 0.00 0.8320000 87.9
2021-06-24 11:45:00 85.8 29.6 50.4 85.8 2.1 3.5 1.7 97.7 58.2 0.00 0.8390000 88.1
2021-06-24 11:50:00 87.0 29.8 51.6 87.0 1.9 3.7 1.5 130.3 129.1 0.00 0.8450000 88.4
2021-06-24 11:55:00 85.8 28.6 49.5 85.8 2.8 4.7 2.6 143.2 81.7 0.00 0.8520000 88.6
2021-06-24 12:00:00 85.5 30.9 51.3 85.5 0.0 3.0 1.6 232.7 45.3 0.00 0.8650000 88.8
2021-06-24 12:05:00 86.7 28.8 50.5 86.7 1.3 4.4 1.4 91.4 147.0 0.00 0.9030000 89.1
2021-06-24 12:10:00 88.3 28.8 51.9 88.3 1.0 3.0 1.0 99.8 89.5 0.00 0.8770000 89.3
2021-06-24 12:15:00 88.0 27.5 50.3 88.0 3.5 3.8 2.5 113.1 137.9 0.00 0.8710000 89.6
2021-06-24 12:20:00 85.9 29.1 50.1 85.9 1.2 5.6 3.0 256.1 163.4 0.00 0.8800000 89.8
2021-06-24 12:25:00 87.7 27.3 49.9 87.7 4.4 4.4 1.5 81.7 125.0 0.00 0.8870000 90.1
2021-06-24 12:30:00 88.1 29.0 51.9 88.1 1.5 3.5 1.6 55.9 65.7 0.00 0.8930000 90.3
2021-06-24 12:35:00 88.0 27.8 50.6 88.0 1.7 4.7 2.3 93.8 131.0 0.00 0.9000000 90.6
2021-06-24 12:40:00 88.8 27.3 50.8 88.8 1.7 4.9 1.9 141.7 117.3 0.00 0.9290000 90.8
2021-06-24 12:45:00 90.2 33.2 57.4 90.2 1.0 3.8 1.7 47.4 133.1 0.00 0.9300000 91.0
2021-06-24 12:50:00 89.7 26.4 50.6 89.7 2.6 5.1 2.3 157.8 134.5 0.00 0.9550000 91.2
2021-06-24 12:55:00 89.7 29.5 53.7 89.7 0.0 4.4 1.9 169.1 125.0 0.00 0.9880000 91.5
2021-06-24 13:00:00 90.4 27.7 52.6 90.4 3.0 4.0 2.1 46.4 100.6 0.00 0.9960000 91.7
2021-06-24 13:05:00 91.6 26.0 51.8 91.6 2.1 4.2 2.1 94.0 87.3 0.00 0.9670000 92.0
2021-06-24 13:10:00 92.5 24.0 50.4 92.5 4.4 4.4 1.4 66.7 97.6 0.00 0.9520000 92.2
2021-06-24 13:15:00 91.2 30.0 55.4 91.2 1.9 4.2 2.1 226.6 152.2 0.00 0.9960000 92.5
2021-06-24 13:20:00 91.8 26.0 52.1 91.8 2.4 2.8 1.5 203.2 143.4 0.00 0.9910000 92.7
2021-06-24 13:25:00 89.0 26.6 50.3 89.0 3.5 6.5 2.9 227.7 212.1 0.00 0.9610000 93.0
2021-06-24 13:30:00 90.4 25.8 50.6 90.4 3.3 4.2 2.0 192.9 158.5 0.00 1.0250000 93.3
2021-06-24 13:35:00 89.5 24.5 48.5 89.5 3.8 5.1 2.6 39.9 57.3 0.00 0.8580000 93.5
2021-06-24 13:40:00 88.8 26.8 50.4 88.8 2.4 4.2 2.9 113.6 177.5 0.00 0.4210000 93.7
2021-06-24 13:45:00 88.2 28.9 51.9 88.2 2.1 3.3 1.1 33.1 162.7 0.00 0.4960000 94.0
2021-06-24 13:50:00 88.5 26.3 49.6 88.5 1.5 4.2 1.8 105.3 69.1 0.00 0.2900000 94.2
2021-06-24 13:55:00 86.8 27.3 49.0 86.8 1.3 3.1 2.5 290.1 236.5 0.00 0.2240000 94.5
2021-06-24 14:00:00 87.0 27.5 49.5 87.0 0.0 2.1 0.6 0.0 50.6 0.00 0.1340000 94.7
2021-06-24 14:05:00 86.3 27.8 49.2 86.3 4.7 4.7 1.3 227.6 219.2 0.00 0.0690000 94.9
2021-06-24 14:10:00 86.0 28.5 49.6 86.0 5.8 9.4 3.0 311.8 276.7 0.00 0.0450000 95.1
2021-06-24 14:15:00 83.6 32.7 51.2 83.6 3.8 8.7 4.8 287.8 306.5 0.00 0.0610000 95.3
2021-06-24 14:20:00 81.1 39.3 54.0 81.1 4.2 12.8 5.4 304.3 285.5 0.00 0.1240000 95.4
2021-06-24 14:25:00 79.1 41.3 53.6 79.1 3.5 7.4 4.6 297.1 357.6 0.01 0.1840000 95.5
2021-06-24 14:30:00 80.3 39.0 53.2 80.3 0.0 6.5 3.6 333.2 345.0 0.00 0.1420000 95.6
2021-06-24 14:35:00 80.9 34.3 50.2 80.9 4.4 6.7 3.1 242.3 309.4 0.00 0.0830000 95.6
2021-06-24 14:40:00 80.0 44.2 56.3 80.3 6.2 10.3 4.5 325.1 265.9 0.00 0.0460000 95.7
2021-06-24 14:45:00 76.4 57.2 60.1 76.4 9.7 13.7 7.8 268.8 271.1 0.00 0.0320000 95.7
2021-06-24 14:50:00 73.5 55.8 56.8 73.5 6.3 20.3 9.2 219.1 266.7 0.01 0.0290000 95.6
2021-06-24 14:55:00 73.7 52.7 55.3 73.7 8.7 13.9 8.5 250.5 258.9 0.00 0.0250000 95.6
2021-06-24 15:00:00 71.2 61.7 57.4 71.2 9.2 13.7 9.1 333.7 280.8 0.00 0.0220000 95.5
2021-06-24 15:05:00 68.8 67.8 57.7 68.8 6.9 12.6 7.5 247.1 257.4 0.01 0.0190000 95.4
2021-06-24 15:10:00 67.8 72.9 58.8 67.8 8.5 10.5 7.9 247.4 241.1 0.00 0.0180000 95.3
2021-06-24 15:15:00 66.9 74.2 58.4 66.9 5.3 10.8 7.4 225.1 241.1 0.01 0.0170000 95.1
2021-06-24 15:20:00 66.2 79.2 59.6 66.2 1.7 8.5 3.8 156.8 222.7 0.01 0.0170000 94.9
2021-06-24 15:25:00 65.7 78.1 58.7 65.7 1.5 6.0 1.8 179.5 229.5 0.01 0.0180000 94.8
2021-06-24 15:30:00 65.0 81.3 59.1 65.0 5.8 7.4 3.0 157.0 149.5 0.00 0.0200000 94.6
2021-06-24 15:35:00 64.9 75.9 57.1 64.9 2.6 5.6 2.4 124.7 127.7 0.00 0.0240000 94.4
2021-06-24 15:40:00 65.5 77.4 58.2 65.5 0.0 3.8 1.6 92.7 98.7 0.01 0.0310000 94.2
2021-06-24 15:45:00 66.0 77.7 58.8 66.0 0.0 1.7 0.5 276.6 106.4 0.00 0.0490000 94.0
2021-06-24 15:50:00 67.2 60.6 53.1 67.2 2.2 4.2 1.4 86.8 108.0 0.00 0.0870000 93.7
2021-06-24 15:55:00 68.9 59.9 54.4 68.9 1.5 4.2 1.8 147.3 142.2 0.00 0.1960000 93.5
2021-06-24 16:00:00 70.1 65.2 57.8 70.1 0.0 1.5 0.3 140.9 125.8 0.00 0.2490000 93.3
2021-06-24 16:05:00 70.7 62.2 57.1 70.7 0.0 1.9 0.3 134.4 107.3 0.00 0.1110000 93.1
2021-06-24 16:10:00 71.1 57.7 55.4 71.1 0.0 3.0 1.1 119.2 109.1 0.00 0.0650000 92.9
2021-06-24 16:15:00 71.0 56.7 54.8 71.0 4.4 4.4 1.0 144.7 163.6 0.00 0.0890000 92.7
2021-06-24 16:20:00 71.0 61.1 57.0 71.0 1.9 5.8 1.9 131.7 117.7 0.00 0.1450000 92.5
2021-06-24 16:25:00 70.8 65.1 58.6 70.8 0.0 1.5 0.7 116.6 128.4 0.00 0.1640000 92.3
2021-06-24 16:30:00 70.2 67.4 58.9 70.2 1.2 2.4 0.7 149.4 108.4 0.00 0.1580000 92.1
2021-06-24 16:35:00 70.2 65.6 58.2 70.2 2.1 3.3 1.5 123.1 119.3 0.00 0.1500000 91.9
2021-06-24 16:40:00 70.1 66.8 58.6 70.1 2.1 4.6 2.4 57.6 127.1 0.00 0.1770000 91.8
2021-06-24 16:45:00 70.0 65.8 58.1 70.0 2.2 5.5 2.9 168.3 137.6 0.00 0.2100000 91.6
2021-06-24 16:50:00 71.0 62.2 57.4 71.0 2.2 3.7 1.5 174.1 149.1 0.00 0.6050000 91.4
2021-06-24 16:55:00 73.2 59.6 58.3 73.2 0.0 4.7 1.6 85.9 141.2 0.00 0.5790000 91.3
2021-06-24 17:00:00 75.2 59.4 60.0 75.2 0.0 1.0 0.1 66.8 124.4 0.00 0.1840000 91.1
2021-06-24 17:05:00 75.1 56.0 58.3 75.1 1.2 3.5 0.9 32.1 79.8 0.00 0.1900000 90.9
2021-06-24 17:10:00 75.3 54.6 57.8 75.3 0.0 3.0 0.6 291.0 146.7 0.00 0.3490000 90.8
2021-06-24 17:15:00 76.2 52.0 57.3 76.2 0.0 1.2 0.3 321.9 162.5 0.00 0.3220000 90.7
2021-06-24 17:20:00 76.5 53.2 58.2 76.5 0.0 2.6 0.8 94.2 150.9 0.00 0.1720000 90.6
2021-06-24 17:25:00 76.7 58.9 61.3 76.7 0.0 3.0 0.5 67.8 129.6 0.00 0.1330000 90.5
2021-06-24 17:30:00 77.0 56.7 60.5 77.0 0.0 1.2 0.1 298.2 226.1 0.00 0.1490000 90.4
2021-06-24 17:35:00 76.6 53.6 58.5 76.6 2.8 4.2 1.1 260.0 280.4 0.00 0.1430000 90.2
2021-06-24 17:40:00 76.6 54.0 58.7 76.6 2.8 3.3 1.5 238.4 261.8 0.00 0.1370000 90.2
2021-06-24 17:45:00 75.8 55.5 58.8 75.8 4.2 6.3 3.7 248.1 241.8 0.00 0.1020000 90.1
2021-06-24 17:50:00 75.5 57.1 59.3 75.5 0.0 4.7 2.6 187.1 237.9 0.00 0.1020000 90.0
2021-06-24 17:55:00 75.4 59.9 60.4 75.4 0.0 4.2 1.0 220.6 231.2 0.00 0.0830000 89.9
2021-06-24 18:00:00 75.2 57.0 58.9 75.2 2.4 3.5 1.4 232.7 242.2 0.00 0.0530000 89.8
2021-06-24 18:05:00 75.0 58.0 59.2 75.0 0.0 1.3 0.0 169.7 263.5 0.00 0.0420000 89.7
2021-06-24 18:10:00 74.7 61.1 60.4 74.7 0.0 0.0 0.0 134.0 0.0 0.00 0.0530000 89.6
2021-06-24 18:15:00 74.7 62.7 61.1 74.7 0.0 0.0 0.0 60.9 0.0 0.00 0.0780000 89.5
2021-06-24 18:20:00 74.8 67.6 63.4 74.8 0.0 0.8 0.1 27.1 43.9 0.00 0.0990000 89.4
2021-06-24 18:25:00 74.8 63.6 61.6 74.8 0.0 1.5 0.4 114.2 2.4 0.00 0.2620000 89.3
2021-06-24 18:30:00 75.7 60.8 61.2 75.7 0.8 1.7 0.2 325.2 342.4 0.00 0.3880000 89.2
2021-06-24 18:35:00 76.8 59.9 61.8 76.8 3.3 4.0 3.1 27.7 15.0 0.00 0.1620000 89.1
2021-06-24 18:40:00 77.4 56.0 60.5 77.4 1.0 4.2 1.8 334.9 21.3 0.00 0.2970000 89.0
2021-06-24 18:45:00 78.3 54.0 60.3 78.3 3.8 4.7 2.5 269.3 355.4 0.00 0.2580000 88.9
2021-06-24 18:50:00 79.4 47.7 57.8 79.4 1.3 2.4 1.0 243.2 320.8 0.00 0.2380000 88.8
2021-06-24 18:55:00 80.3 46.0 57.7 80.7 0.0 0.0 0.0 191.4 0.0 0.00 0.1950000 88.8
2021-06-24 19:00:00 79.9 47.2 58.0 79.9 0.0 0.0 0.0 220.9 0.0 0.00 0.2210000 88.7
2021-06-24 19:05:00 79.1 46.9 57.1 79.1 0.0 0.0 0.0 185.1 0.0 0.00 0.2030000 88.6
2021-06-24 19:10:00 78.9 47.5 57.2 78.9 2.2 3.8 1.5 234.9 244.4 0.00 0.1010000 88.5
2021-06-24 19:15:00 78.6 46.7 56.5 78.6 0.0 3.8 1.4 186.1 224.2 0.00 0.1060000 88.4
2021-06-24 19:20:00 78.3 47.9 56.9 78.3 0.0 3.0 0.6 183.1 230.6 0.00 0.1790000 88.4
2021-06-24 19:25:00 78.2 46.2 55.9 78.2 0.0 1.2 0.1 212.6 192.0 0.00 0.1570000 88.3
2021-06-24 19:30:00 78.7 43.3 54.5 78.7 0.0 0.0 0.0 224.2 0.0 0.00 0.1430000 88.2

Data is courtesy of the NM Climate Center. DO NOT USE IN LEGAL PROCEEDINGS.